Weather at Chièvres airport - EBCV


metar: EBCV 250425Z AUTO 05007KT 2000 BKN085/// BKN100/// 12/11 Q1010 YLO

17 minuten geleden, om 04:25 UTC, de wind blies met windsnelheden van 3.6 meter per seconde(8.1 mijl per uur) vanuit Noordoost nabij Chièvres airport. De temperatuur was 12 °C (54 °F), en de barometerdruk was 1,010 hPa (29.83 inHg). De relatieve vochtigheid was 93.6%. er was geen bewolking. De zichtbaarheid was 2.0 kilometer (1.2 mijl).

temperature image   windir image sky image 

Last 24 hour graph Chièvres Airport - EBCV